• Join FlightAware (Why Join?)
  • Login
  • US Flag 
05:00AM EDT


 

Airport Tracker/Info


-or-


 

Live Flight TrackerFlight Track Log ✈ SWA757 ✈ 25-Apr-2013 ✈ KSJC - KSAN

Flight Track Log - Related Links

Times and Time Zones

All times are in EDT time to prevent confusion due to time zone crossing. See the SWA757 flight status page for this flight to view local times or setup timezone preferences in your user account.

Time Position Orientation Groundspeed Altitude Reporting Facility
EDT Latitude Longitude Course Direction KTS MPH feet Rate Location/Type
11:14PM 37.4000 -121.9667 141° Southeast 168 193 2,100  Level Northern Cal TRACON
11:15PM 37.4333 -121.9500 22° Northeast 232 267 4,800 1,860 Climbing Northern Cal TRACON
11:17PM 37.3392 -121.8017 129° Southeast 238 274 8,700 1,740 Climbing Oakland Center
11:18PM 37.2769 -121.7311 138° Southeast 297 342 11,000 2,400 Climbing Oakland Center
11:19PM 36.9021 -121.4233 141° Southeast  Level Estimated
11:19PM 37.2047 -121.6511 139° Southeast 347 399 13,700  Level Oakland Center
11:20PM 37.1278 -121.5678 139° Southeast 364 419 16,900 3,000 Climbing Oakland Center
11:21PM 37.0508 -121.4864 140° Southeast 381 438 19,900 1,860 Climbing Oakland Center
11:22PM 36.9725 -121.3950 137° Southeast 385 443 20,800 1,620 Climbing Oakland Center
11:23PM 36.8775 -121.2911 139° Southeast 452 520 23,200 2,700 Climbing Oakland Center
11:24PM 36.7786 -121.1881 140° Southeast 430 495 26,300 2,460 Climbing Oakland Center
11:25PM 36.6861 -121.0875 139° Southeast 440 506 28,300 1,560 Climbing Oakland Center
11:26PM 36.5919 -120.9842 139° Southeast 450 518 29,500 1,500 Climbing Oakland Center
11:27PM 36.4967 -120.8800 139° Southeast 454 522 31,400 1,920 Climbing Oakland Center
11:28PM 36.4017 -120.7781 139° Southeast 453 521 33,500 1,680 Climbing Oakland Center
11:29PM 36.2881 -120.6539 139° Southeast 453 521 34,900 660 Climbing Oakland Center
11:30PM 36.2139 -120.5283 126° Southeast 454 522 34,900 720 Level Oakland Center
11:31PM 36.1414 -120.3944 124° Southeast 469 540 36,400 960 Climbing Oakland Center
11:32PM 36.0614 -120.2747 130° Southeast 451 519 36,900 240 Climbing Oakland Center
11:33PM 35.9511 -120.1961 150° Southeast 446 513 36,900  Level Oakland Center
11:34PM 35.8378 -120.1142 150° Southeast 466 536 36,900  Level Oakland Center
11:35PM 35.7253 -120.0353 150° Southeast 462 532 36,900 -360 Level Oakland Center
11:36PM 35.6142 -119.9528 149° Southeast 460 529 36,200 -1,200 Descending Oakland Center
11:37PM 35.5100 -119.8603 144° Southeast 457 526 34,500 -1,380 Descending Oakland Center
11:38PM 35.4047 -119.7700 145° Southeast 456 525 33,500 -840 Descending Oakland Center
11:39PM 35.3036 -119.6828 145° Southeast 447 514 32,900 -300 Descending Oakland Center
11:40PM 35.2014 -119.5947 145° Southeast 445 512 32,900  Level Oakland Center
11:41PM 35.0989 -119.5081 145° Southeast 447 514 32,900  Level Oakland Center
11:42PM 34.9967 -119.4217 145° Southeast 445 512 32,900  Level Oakland Center
11:43PM 34.8956 -119.3342 145° Southeast 445 512 32,900  Level Oakland Center
11:44PM 34.7925 -119.2461 145° Southeast 449 517 32,900  Level Oakland Center
11:45PM 34.6883 -119.1589 145° Southeast 453 521 32,900  Level Oakland Center
11:47PM 34.5542 -119.0475 146° Southeast 457 526 33,000  Climbing Los Angeles Center
11:48PM 34.4503 -118.9614 146° Southeast 453 521 33,000  Level Los Angeles Center
11:49PM 34.3481 -118.8733 145° Southeast 452 520 33,000 -180 Level Los Angeles Center
11:50PM 34.2339 -118.7517 139° Southeast 455 524 32,700 -660 Descending Los Angeles Center
11:51PM 34.1394 -118.6522 139° Southeast 453 521 31,700 -1,020 Descending Los Angeles Center
11:52PM 34.0461 -118.5525 138° Southeast 449 517 30,700 -1,020 Descending Los Angeles Center
11:53PM 33.9522 -118.4522 138° Southeast 449 517 29,700 -960 Descending Los Angeles Center
11:54PM 33.8644 -118.3425 134° Southeast 459 528 28,800 -1,020 Descending Los Angeles Center
11:55PM 33.7739 -118.2278 134° Southeast 452 520 27,700 -900 Descending Los Angeles Center
11:56PM 33.7053 -118.1400 133° Southeast 444 511 27,000 -420 Descending Los Angeles Center
11:57PM 33.6044 -118.0114 133° Southeast 440 506 26,900 -1,080 Descending Los Angeles Center
11:58PM 33.5219 -117.9083 134° Southeast 431 496 24,800 -2,340 Descending Los Angeles Center
11:58PM 33.4833 -117.8500 128° Southeast 407 468 23,600 -2,400 Descending Southern California TRACON
11:59PM 33.4000 -117.7500 135° Southeast 408 470 21,500 -2,160 Descending Southern California TRACON
12:00AM 33.3494 -117.6906 136° Southeast 406 467 20,100 -2,100 Descending Los Angeles Center
12:01AM 33.2753 -117.5972 134° Southeast 392 451 18,000 -1,980 Descending Los Angeles Center
12:01AM 33.2500 -117.5667 135° Southeast 389 448 17,500 -2,100 Descending Southern California TRACON
12:02AM 33.1667 -117.4833 140° Southeast 378 435 15,300 -2,160 Descending Southern California TRACON
12:03AM 33.1103 -117.4469 152° Southeast 370 426 13,800 -2,700 Descending Los Angeles Center
12:04AM 33.0283 -117.3822 146° Southeast 359 413 10,600 -1,920 Descending Los Angeles Center
12:05AM 32.9519 -117.3200 146° Southeast 340 391 9,900 -960 Descending Los Angeles Center
12:06AM 32.8972 -117.2778 147° Southeast 307 353 8,700 -1,560 Descending Los Angeles Center
12:07AM 32.8167 -117.2000 141° Southeast 269 310 6,600 -1,500 Descending Southern California TRACON
12:08AM 32.7950 -117.1319 111° Southeast 254 292 5,700 -900 Descending Los Angeles Center
12:09AM 32.7775 -117.0558 105° East 240 276 4,900 -960 Descending Los Angeles Center
12:10AM 32.7333 -117.0500 174° South 164 189 3,700 -1,440 Descending Southern California TRACON
12:11AM 32.7167 -117.1000 248° West 164 189 1,900 -1,500 Descending Southern California TRACON
12:12AM 32.7167 -117.1333 270° West 143 165 900 -840 Descending Southern California TRACON
12:13AM 32.7353 -117.1892 292° West 146 168 300 -600 Descending Los Angeles Center
12:15AM 32.7336 -117.1897 180° South  Level Estimated
12:22AM 32.7333 -117.1833 283° West  Level FlightAware Approximate